createdAt,value
2019-01-14T00:01:39.645Z,7.70
2019-01-14T00:04:09.280Z,7.80
2019-01-14T00:06:38.828Z,8.00
2019-01-14T00:09:10.087Z,7.80
2019-01-14T00:11:39.991Z,8.00
2019-01-14T00:14:10.061Z,8.00
2019-01-14T00:16:39.889Z,7.70
2019-01-14T00:19:09.993Z,7.80
2019-01-14T00:21:39.513Z,8.10
2019-01-14T00:24:09.087Z,8.00
2019-01-14T00:26:38.663Z,7.70
2019-01-14T00:29:08.765Z,7.50
2019-01-14T00:31:38.628Z,7.70
2019-01-14T00:34:08.552Z,7.70
2019-01-14T00:36:38.283Z,7.70
2019-01-14T00:39:08.538Z,7.60
2019-01-14T00:41:38.092Z,7.70
2019-01-14T00:44:07.674Z,7.60
2019-01-14T00:46:37.216Z,7.70
2019-01-14T00:49:06.771Z,7.50
2019-01-14T00:51:36.354Z,7.40
2019-01-14T00:54:06.114Z,7.40
2019-01-14T00:56:35.738Z,7.20
2019-01-14T00:59:05.426Z,7.40
2019-01-14T01:01:34.977Z,7.30
2019-01-14T01:04:04.524Z,7.20
2019-01-14T01:06:34.114Z,7.40
2019-01-14T01:09:06.143Z,7.40
2019-01-14T01:11:35.817Z,7.60
2019-01-14T01:14:05.625Z,7.70
2019-01-14T01:16:35.319Z,7.30
2019-01-14T01:19:05.319Z,7.40
2019-01-14T01:21:35.135Z,7.40
2019-01-14T01:24:04.871Z,7.20
2019-01-14T01:26:34.964Z,7.20
2019-01-14T01:29:04.513Z,7.30
2019-01-14T01:31:34.108Z,7.30
2019-01-14T01:34:03.663Z,7.20
2019-01-14T01:36:33.203Z,7.30
2019-01-14T01:39:04.382Z,7.30
2019-01-14T01:41:33.932Z,7.00
2019-01-14T01:44:03.566Z,7.10
2019-01-14T01:46:33.112Z,6.90
2019-01-14T01:49:02.924Z,7.00
2019-01-14T01:51:32.455Z,6.60
2019-01-14T01:54:05.996Z,7.00
2019-01-14T01:56:35.849Z,7.00
2019-01-14T01:59:05.953Z,7.00
2019-01-14T02:01:35.814Z,6.50
2019-01-14T02:04:05.415Z,7.00
2019-01-14T02:06:39.175Z,6.80
2019-01-14T02:09:08.768Z,6.90
2019-01-14T02:11:38.770Z,7.00
2019-01-14T02:14:08.648Z,7.00
2019-01-14T02:16:38.864Z,7.00
2019-01-14T02:19:08.707Z,7.20
2019-01-14T02:21:38.267Z,6.80
2019-01-14T02:24:08.198Z,6.90
2019-01-14T02:26:37.768Z,7.00
2019-01-14T02:29:10.384Z,6.80
2019-01-14T02:31:40.243Z,7.00
2019-01-14T02:34:09.824Z,7.10
2019-01-14T02:36:48.158Z,6.80
2019-01-14T02:39:10.650Z,6.90
2019-01-14T02:41:40.186Z,7.00
2019-01-14T02:44:10.016Z,7.00
2019-01-14T02:46:40.132Z,6.90
2019-01-14T02:49:09.964Z,7.00
2019-01-14T02:51:39.804Z,6.90
2019-01-14T02:54:09.672Z,7.00
2019-01-14T02:56:39.523Z,7.10
2019-01-14T02:59:09.360Z,7.00
2019-01-14T03:01:39.443Z,6.80
2019-01-14T03:04:09.023Z,7.00
2019-01-14T03:06:38.609Z,7.00
2019-01-14T03:09:09.307Z,7.00
2019-01-14T03:11:38.869Z,7.00
2019-01-14T03:14:08.404Z,6.80
2019-01-14T03:16:38.220Z,6.80
2019-01-14T03:19:07.829Z,7.00
2019-01-14T03:21:37.930Z,7.10
2019-01-14T03:24:07.472Z,6.90
2019-01-14T03:26:37.296Z,6.80
2019-01-14T03:29:07.434Z,6.80
2019-01-14T03:31:37.044Z,6.70
2019-01-14T03:34:06.894Z,6.60
2019-01-14T03:36:37.028Z,6.80
2019-01-14T03:39:07.971Z,6.70
2019-01-14T03:41:37.533Z,6.70
2019-01-14T03:44:07.119Z,6.60
2019-01-14T03:46:36.958Z,6.80
2019-01-14T03:49:06.766Z,6.80
2019-01-14T03:51:36.386Z,6.60
2019-01-14T03:54:05.961Z,6.80
2019-01-14T03:56:35.513Z,6.80
2019-01-14T03:59:05.427Z,6.70
2019-01-14T04:01:35.073Z,6.40
2019-01-14T04:04:04.875Z,6.60
2019-01-14T04:06:34.801Z,6.40
2019-01-14T04:09:06.211Z,6.40
2019-01-14T04:11:35.808Z,6.40
2019-01-14T04:14:05.718Z,6.30
2019-01-14T04:16:35.268Z,6.40
2019-01-14T04:19:04.948Z,6.40
2019-01-14T04:21:35.073Z,6.20
2019-01-14T04:24:04.660Z,6.20
2019-01-14T04:26:34.282Z,6.30
2019-01-14T04:29:04.118Z,6.20
2019-01-14T04:31:33.681Z,6.40
2019-01-14T04:34:03.533Z,6.50
2019-01-14T04:36:33.453Z,6.60
2019-01-14T04:39:04.658Z,6.60
2019-01-14T04:41:34.255Z,6.60
2019-01-14T04:44:04.140Z,6.80
2019-01-14T04:46:33.704Z,6.80
2019-01-14T04:49:03.314Z,6.80
2019-01-14T04:51:32.858Z,6.70
2019-01-14T04:54:02.711Z,6.80
2019-01-14T04:56:32.257Z,6.80
2019-01-14T04:59:01.840Z,6.60
2019-01-14T05:01:31.407Z,6.80
2019-01-14T05:04:00.984Z,6.70
2019-01-14T05:06:30.818Z,6.80
2019-01-14T05:09:00.402Z,6.70
2019-01-14T05:11:30.172Z,6.60
2019-01-14T05:14:00.053Z,6.80
2019-01-14T05:16:30.139Z,6.70
2019-01-14T05:18:59.956Z,6.70
2019-01-14T05:21:29.516Z,6.70
2019-01-14T05:23:59.093Z,6.70
2019-01-14T05:26:28.920Z,6.70
2019-01-14T05:28:58.890Z,6.80
2019-01-14T05:31:28.694Z,6.80
2019-01-14T05:33:58.296Z,6.70
2019-01-14T05:36:28.061Z,6.70
2019-01-14T05:38:57.679Z,6.70
2019-01-14T05:41:27.554Z,6.80
2019-01-14T05:43:57.115Z,6.60
2019-01-14T05:46:27.822Z,6.50
2019-01-14T05:48:57.419Z,6.70
2019-01-14T05:51:27.223Z,6.50
2019-01-14T05:53:57.137Z,6.50
2019-01-14T05:56:26.770Z,6.60
2019-01-14T05:58:57.089Z,6.70
2019-01-14T06:01:26.717Z,7.00
2019-01-14T06:03:56.598Z,7.00
2019-01-14T06:06:26.442Z,7.00
2019-01-14T06:08:56.057Z,7.00
2019-01-14T06:11:25.657Z,6.60
2019-01-14T06:13:55.748Z,6.70
2019-01-14T06:16:25.355Z,6.80
2019-01-14T06:18:54.923Z,6.70
2019-01-14T06:21:24.488Z,6.80
2019-01-14T06:23:54.659Z,6.70
2019-01-14T06:26:24.206Z,6.80
2019-01-14T06:28:54.058Z,6.50
2019-01-14T06:31:23.619Z,6.70
2019-01-14T06:33:53.623Z,6.30
2019-01-14T06:36:23.504Z,6.70
2019-01-14T06:38:53.028Z,6.60
2019-01-14T06:41:22.622Z,6.60
2019-01-14T06:43:52.152Z,6.70
2019-01-14T06:46:21.716Z,6.70
2019-01-14T06:48:51.586Z,6.50
2019-01-14T06:51:21.438Z,6.70
2019-01-14T06:53:51.023Z,6.50
2019-01-14T06:56:20.870Z,6.60
2019-01-14T06:58:50.448Z,6.70
2019-01-14T07:01:20.047Z,6.50
2019-01-14T07:03:49.908Z,6.40
2019-01-14T07:06:19.460Z,6.30
2019-01-14T07:08:49.354Z,6.20
2019-01-14T07:11:20.016Z,6.20
2019-01-14T07:13:50.092Z,6.40
2019-01-14T07:16:19.679Z,6.20
2019-01-14T07:18:49.478Z,6.20
2019-01-14T07:21:19.620Z,6.40
2019-01-14T07:23:49.457Z,6.40
2019-01-14T07:26:19.296Z,6.40
2019-01-14T07:28:49.127Z,6.40
2019-01-14T07:31:18.896Z,6.40
2019-01-14T07:33:48.626Z,6.40
2019-01-14T07:36:18.699Z,6.40
2019-01-14T07:38:48.311Z,6.20
2019-01-14T07:41:17.906Z,6.30
2019-01-14T07:43:47.733Z,6.40
2019-01-14T07:46:17.543Z,6.40
2019-01-14T07:48:47.661Z,6.50
2019-01-14T07:51:17.252Z,6.30
2019-01-14T07:53:47.146Z,6.70
2019-01-14T07:56:17.398Z,6.40
2019-01-14T07:58:47.501Z,6.70
2019-01-14T08:01:17.314Z,6.50
2019-01-14T08:03:47.723Z,6.30
2019-01-14T08:06:17.311Z,6.60
2019-01-14T08:08:47.175Z,6.60
2019-01-14T08:11:17.042Z,6.60
2019-01-14T08:13:46.912Z,6.30
2019-01-14T08:16:16.547Z,6.40
2019-01-14T08:18:46.417Z,6.30
2019-01-14T08:21:16.001Z,6.50
2019-01-14T08:23:45.848Z,6.10
2019-01-14T08:26:15.484Z,6.10
2019-01-14T08:28:45.005Z,5.90
2019-01-14T08:31:14.586Z,6.20
2019-01-14T08:33:44.388Z,6.30
2019-01-14T08:36:14.067Z,6.30
2019-01-14T08:38:43.613Z,6.30
2019-01-14T08:41:14.120Z,6.30
2019-01-14T08:43:44.486Z,6.40
2019-01-14T08:46:14.202Z,6.50
2019-01-14T08:48:48.754Z,6.30
2019-01-14T08:51:15.524Z,6.40
2019-01-14T08:53:45.116Z,6.50
2019-01-14T08:56:14.688Z,6.70
2019-01-14T08:58:44.779Z,6.70
2019-01-14T09:01:14.845Z,6.50
2019-01-14T09:03:44.732Z,6.30
2019-01-14T09:06:14.596Z,6.30
2019-01-14T09:08:44.664Z,6.30
2019-01-14T09:11:14.535Z,6.40
2019-01-14T09:13:44.387Z,5.90
2019-01-14T09:16:14.248Z,6.10
2019-01-14T09:18:44.086Z,6.10
2019-01-14T09:21:13.647Z,5.80
2019-01-14T09:23:43.197Z,6.40
2019-01-14T09:26:12.755Z,6.30
2019-01-14T09:28:42.355Z,6.10
2019-01-14T09:31:12.246Z,6.10
2019-01-14T09:33:42.047Z,6.20
2019-01-14T09:36:11.911Z,6.00
2019-01-14T09:38:41.792Z,5.50
2019-01-14T09:41:11.564Z,5.50
2019-01-14T09:43:41.683Z,5.80
2019-01-14T09:46:11.541Z,5.60
2019-01-14T09:48:41.091Z,5.80
2019-01-14T09:51:10.967Z,5.80
2019-01-14T09:53:40.477Z,6.10
2019-01-14T09:56:10.052Z,6.10
2019-01-14T09:58:39.657Z,5.90
2019-01-14T10:01:09.224Z,6.20
2019-01-14T10:03:38.819Z,6.40
2019-01-14T10:06:08.644Z,6.40
2019-01-14T10:08:43.054Z,6.40
2019-01-14T10:11:09.485Z,6.10
2019-01-14T10:13:39.039Z,5.80
2019-01-14T10:16:08.615Z,6.30
2019-01-14T10:18:38.510Z,6.30
2019-01-14T10:21:08.091Z,6.40
2019-01-14T10:23:38.190Z,6.10
2019-01-14T10:26:08.075Z,6.10
2019-01-14T10:28:37.746Z,6.30
2019-01-14T10:31:07.355Z,6.30
2019-01-14T10:33:37.437Z,6.40
2019-01-14T10:36:07.031Z,6.50
2019-01-14T10:38:36.638Z,6.60
2019-01-14T10:41:06.727Z,6.50
2019-01-14T10:43:36.540Z,6.20
2019-01-14T10:46:06.094Z,6.30
2019-01-14T10:48:35.734Z,6.40
2019-01-14T10:51:05.446Z,6.30
2019-01-14T10:53:35.316Z,6.40
2019-01-14T10:56:05.070Z,6.20
2019-01-14T10:58:34.687Z,6.40
2019-01-14T11:01:04.375Z,6.40
2019-01-14T11:03:34.235Z,6.30
2019-01-14T11:06:04.330Z,6.40
2019-01-14T11:08:33.964Z,6.40
2019-01-14T11:11:03.539Z,6.60
2019-01-14T11:13:33.359Z,6.70
2019-01-14T11:16:03.414Z,6.40
2019-01-14T11:18:33.003Z,6.40
2019-01-14T11:21:02.842Z,6.70
2019-01-14T11:23:32.412Z,6.70
2019-01-14T11:26:02.008Z,6.70
2019-01-14T11:28:31.647Z,6.80
2019-01-14T11:31:02.688Z,6.60
2019-01-14T11:33:32.238Z,6.50
2019-01-14T11:36:02.091Z,6.60
2019-01-14T11:38:46.396Z,6.70
2019-01-14T11:41:16.238Z,6.10
2019-01-14T11:43:45.793Z,6.40
2019-01-14T11:46:15.368Z,6.40
2019-01-14T11:48:44.958Z,6.10
2019-01-14T11:51:14.547Z,6.30
2019-01-14T11:53:44.119Z,6.30
2019-01-14T11:56:14.058Z,6.40
2019-01-14T11:58:43.908Z,6.50
2019-01-14T12:01:14.065Z,6.30
2019-01-14T12:03:44.179Z,6.70
2019-01-14T12:06:14.024Z,6.20
2019-01-14T12:08:43.826Z,6.40
2019-01-14T12:11:13.384Z,6.40
2019-01-14T12:13:42.951Z,6.70
2019-01-14T12:16:12.586Z,6.70
2019-01-14T12:18:42.160Z,6.20
2019-01-14T12:21:11.775Z,6.70
2019-01-14T12:23:41.372Z,6.60
2019-01-14T12:26:10.991Z,7.00
2019-01-14T12:28:40.836Z,6.70
2019-01-14T12:31:10.416Z,6.60
2019-01-14T12:33:40.207Z,6.40
2019-01-14T12:36:09.795Z,6.40
2019-01-14T12:38:39.353Z,6.10
2019-01-14T12:41:09.210Z,6.00
2019-01-14T12:43:38.776Z,5.20
2019-01-14T12:46:08.568Z,4.90
2019-01-14T12:48:38.416Z,4.80
2019-01-14T12:51:07.928Z,4.60
2019-01-14T12:53:37.798Z,4.90
2019-01-14T12:56:07.435Z,4.60
2019-01-14T12:58:37.003Z,4.40
2019-01-14T13:01:06.856Z,4.80
2019-01-14T13:03:37.687Z,4.80
2019-01-14T13:06:07.308Z,4.90
2019-01-14T13:08:37.416Z,5.30
2019-01-14T13:11:07.442Z,5.20
2019-01-14T13:13:37.272Z,5.20
2019-01-14T13:16:07.119Z,5.80
2019-01-14T13:18:37.219Z,5.50
2019-01-14T13:21:06.781Z,5.70
2019-01-14T13:23:36.382Z,5.50
2019-01-14T13:26:06.055Z,6.10
2019-01-14T13:28:35.769Z,5.50
2019-01-14T13:31:06.090Z,5.80
2019-01-14T13:33:35.873Z,5.50
2019-01-14T13:36:07.011Z,5.20
2019-01-14T13:38:36.568Z,5.30
2019-01-14T13:41:06.466Z,5.10
2019-01-14T13:43:36.296Z,5.30
2019-01-14T13:46:06.247Z,5.40
2019-01-14T13:48:36.131Z,5.50
2019-01-14T13:51:05.994Z,5.10
2019-01-14T13:53:35.813Z,5.20
2019-01-14T13:56:05.363Z,5.00
2019-01-14T13:58:35.451Z,5.20
2019-01-14T14:01:04.992Z,5.10
2019-01-14T14:03:34.898Z,4.90
2019-01-14T14:06:04.822Z,4.90
2019-01-14T14:08:34.667Z,5.10
2019-01-14T14:11:04.343Z,4.80
2019-01-14T14:13:33.876Z,5.30
2019-01-14T14:16:03.460Z,5.40
2019-01-14T14:18:33.103Z,5.40
2019-01-14T14:21:02.656Z,5.30
2019-01-14T14:23:33.443Z,5.50
2019-01-14T14:26:03.457Z,5.10
2019-01-14T14:28:33.047Z,5.20
2019-01-14T14:31:02.662Z,5.10
2019-01-14T14:33:32.224Z,5.10
2019-01-14T14:36:02.036Z,5.30
2019-01-14T14:38:31.655Z,5.20
2019-01-14T14:41:01.761Z,5.10
2019-01-14T14:43:31.582Z,4.90
2019-01-14T14:46:01.418Z,4.90
2019-01-14T14:48:31.485Z,4.90
2019-01-14T14:51:01.074Z,5.00
2019-01-14T14:53:30.609Z,4.90
2019-01-14T14:56:00.460Z,4.70
2019-01-14T14:58:30.292Z,5.00
2019-01-14T15:01:00.095Z,4.80
2019-01-14T15:03:30.260Z,5.10
2019-01-14T15:06:00.078Z,5.10
2019-01-14T15:08:29.650Z,5.20
2019-01-14T15:10:59.455Z,5.10
2019-01-14T15:13:29.318Z,5.10
2019-01-14T15:15:58.881Z,5.40
2019-01-14T15:18:28.787Z,5.20
2019-01-14T15:20:58.617Z,5.20
2019-01-14T15:23:28.490Z,5.40
2019-01-14T15:25:58.379Z,5.10
2019-01-14T15:28:28.433Z,5.10
2019-01-14T15:30:58.306Z,5.20
2019-01-14T15:33:27.808Z,4.60
2019-01-14T15:35:57.903Z,4.90
2019-01-14T15:38:27.487Z,4.50
2019-01-14T15:40:57.348Z,4.60
2019-01-14T15:43:27.501Z,4.40
2019-01-14T15:45:57.226Z,4.50
2019-01-14T15:48:27.098Z,4.30
2019-01-14T15:50:56.631Z,4.30
2019-01-14T15:53:26.995Z,4.60
2019-01-14T15:55:56.823Z,4.60
2019-01-14T15:58:26.710Z,5.10
2019-01-14T16:00:56.295Z,5.30
2019-01-14T16:03:25.864Z,5.00
2019-01-14T16:05:55.459Z,4.90
2019-01-14T16:08:25.283Z,5.10
2019-01-14T16:10:55.176Z,5.20
2019-01-14T16:13:24.834Z,4.90
2019-01-14T16:15:54.680Z,4.90
2019-01-14T16:18:24.789Z,4.40
2019-01-14T16:20:54.327Z,4.60
2019-01-14T16:23:24.160Z,4.50
2019-01-14T16:25:53.685Z,4.50
2019-01-14T16:28:23.269Z,4.60
2019-01-14T16:30:53.117Z,4.60
2019-01-14T16:33:22.757Z,4.60
2019-01-14T16:35:52.398Z,4.30
2019-01-14T16:38:21.966Z,4.30
2019-01-14T16:40:51.907Z,4.40
2019-01-14T16:43:21.718Z,4.60
2019-01-14T16:45:51.602Z,4.00
2019-01-14T16:48:21.175Z,4.00
2019-01-14T16:50:51.011Z,3.90
2019-01-14T16:53:20.823Z,4.00
2019-01-14T16:55:53.423Z,4.20
2019-01-14T16:58:23.030Z,4.10
2019-01-14T17:00:52.878Z,4.00
2019-01-14T17:03:22.424Z,4.10
2019-01-14T17:05:52.001Z,4.40
2019-01-14T17:08:21.830Z,4.10
2019-01-14T17:10:51.395Z,4.30
2019-01-14T17:13:20.995Z,4.80
2019-01-14T17:15:50.582Z,4.60
2019-01-14T17:18:20.123Z,4.50
2019-01-14T17:20:49.791Z,4.60
2019-01-14T17:23:19.871Z,4.50
2019-01-14T17:25:49.920Z,4.60
2019-01-14T17:28:19.538Z,4.50
2019-01-14T17:30:49.142Z,4.60
2019-01-14T17:33:19.019Z,4.70
2019-01-14T17:35:49.105Z,4.60
2019-01-14T17:38:18.703Z,4.60
2019-01-14T17:40:48.550Z,4.80
2019-01-14T17:43:18.373Z,4.60
2019-01-14T17:45:47.968Z,4.70
2019-01-14T17:48:17.603Z,4.80
2019-01-14T17:50:47.424Z,5.00
2019-01-14T17:53:17.007Z,5.10
2019-01-14T17:55:46.631Z,5.40
2019-01-14T17:58:16.276Z,5.70
2019-01-14T18:00:45.810Z,5.30
2019-01-14T18:03:15.651Z,5.50
2019-01-14T18:05:45.496Z,5.20
2019-01-14T18:08:15.308Z,5.60
2019-01-14T18:10:44.891Z,5.20
2019-01-14T18:13:14.465Z,5.50
2019-01-14T18:15:44.125Z,5.10
2019-01-14T18:18:13.735Z,5.20
2019-01-14T18:20:43.654Z,5.20
2019-01-14T18:23:13.449Z,5.10
2019-01-14T18:25:43.518Z,5.40
2019-01-14T18:28:13.388Z,5.40
2019-01-14T18:30:43.261Z,5.50
2019-01-14T18:33:12.841Z,5.40
2019-01-14T18:35:42.682Z,4.90
2019-01-14T18:38:12.735Z,4.90
2019-01-14T18:40:47.141Z,5.00
2019-01-14T18:43:14.083Z,5.10
2019-01-14T18:45:43.695Z,5.40
2019-01-14T18:48:13.249Z,4.80
2019-01-14T18:50:42.836Z,5.00
2019-01-14T18:53:12.441Z,4.90
2019-01-14T18:55:42.023Z,5.10
2019-01-14T18:58:12.595Z,4.90
2019-01-14T19:00:42.279Z,5.40
2019-01-14T19:03:11.903Z,4.90
2019-01-14T19:05:41.749Z,4.90
2019-01-14T19:08:11.264Z,5.10
2019-01-14T19:10:41.163Z,4.90
2019-01-14T19:13:11.009Z,4.90
2019-01-14T19:15:40.678Z,4.90
2019-01-14T19:18:10.235Z,4.90
2019-01-14T19:20:40.177Z,4.80
2019-01-14T19:23:10.068Z,4.80
2019-01-14T19:25:39.866Z,5.00
2019-01-14T19:28:09.520Z,4.90
2019-01-14T19:30:39.151Z,4.90
2019-01-14T19:33:08.747Z,4.60
2019-01-14T19:35:38.290Z,4.60
2019-01-14T19:38:08.157Z,4.80
2019-01-14T19:40:37.716Z,4.80
2019-01-14T19:43:07.612Z,4.80
2019-01-14T19:45:37.453Z,4.80
2019-01-14T19:48:07.017Z,4.60
2019-01-14T19:50:36.647Z,4.70
2019-01-14T19:53:06.216Z,4.60
2019-01-14T19:55:36.215Z,5.00
2019-01-14T19:58:05.919Z,4.80
2019-01-14T20:00:35.860Z,4.90
2019-01-14T20:03:05.359Z,4.90
2019-01-14T20:05:34.995Z,5.10
2019-01-14T20:08:05.166Z,5.10
2019-01-14T20:10:34.756Z,5.00
2019-01-14T20:13:04.310Z,5.20
2019-01-14T20:15:34.145Z,4.80
2019-01-14T20:18:03.729Z,4.90
2019-01-14T20:20:33.315Z,4.90
2019-01-14T20:23:02.918Z,4.90
2019-01-14T20:25:32.719Z,4.80
2019-01-14T20:28:02.543Z,4.60
2019-01-14T20:30:32.103Z,4.60
2019-01-14T20:33:02.287Z,4.70
2019-01-14T20:35:31.797Z,4.50
2019-01-14T20:38:01.494Z,4.50
2019-01-14T20:40:31.046Z,4.60
2019-01-14T20:43:00.887Z,4.50
2019-01-14T20:45:30.463Z,4.60
2019-01-14T20:48:00.060Z,4.60
2019-01-14T20:50:29.902Z,4.60
2019-01-14T20:52:59.715Z,4.60
2019-01-14T20:55:29.323Z,4.30
2019-01-14T20:57:58.951Z,4.30
2019-01-14T21:00:28.493Z,4.50
2019-01-14T21:02:58.119Z,4.20
2019-01-14T21:05:28.166Z,4.30
2019-01-14T21:07:57.859Z,4.50
2019-01-14T21:10:27.951Z,4.60
2019-01-14T21:12:58.045Z,4.70
2019-01-14T21:15:27.873Z,4.60
2019-01-14T21:17:57.641Z,4.50
2019-01-14T21:20:27.230Z,4.60
2019-01-14T21:22:57.671Z,4.60
2019-01-14T21:25:27.541Z,4.80
2019-01-14T21:27:57.453Z,4.60
2019-01-14T21:30:27.775Z,4.50
2019-01-14T21:32:57.403Z,4.70
2019-01-14T21:35:27.351Z,4.60
2019-01-14T21:37:58.926Z,4.70
2019-01-14T21:40:28.827Z,4.60
2019-01-14T21:42:58.380Z,4.60
2019-01-14T21:45:28.512Z,4.80
2019-01-14T21:47:58.413Z,4.30
2019-01-14T21:50:29.270Z,4.30
2019-01-14T21:52:58.893Z,4.40
2019-01-14T21:55:28.742Z,4.50
2019-01-14T21:57:58.360Z,4.50
2019-01-14T22:00:28.266Z,4.70
2019-01-14T22:02:58.056Z,4.60
2019-01-14T22:05:27.616Z,4.50
2019-01-14T22:07:57.715Z,4.50
2019-01-14T22:10:28.704Z,4.80
2019-01-14T22:12:58.403Z,4.40
2019-01-14T22:15:28.002Z,4.30
2019-01-14T22:17:57.839Z,4.80
2019-01-14T22:20:28.961Z,4.20
2019-01-14T22:22:58.836Z,4.30
2019-01-14T22:25:28.730Z,4.00
2019-01-14T22:27:58.264Z,4.00
2019-01-14T22:30:30.205Z,3.90
2019-01-14T22:33:00.012Z,4.10
2019-01-14T22:35:29.868Z,4.40
2019-01-14T22:37:59.481Z,4.20
2019-01-14T22:40:29.083Z,4.30
2019-01-14T22:42:58.652Z,4.30
2019-01-14T22:45:28.469Z,4.20
2019-01-14T22:47:58.094Z,4.60
2019-01-14T22:50:28.035Z,4.40
2019-01-14T22:52:57.971Z,4.40
2019-01-14T22:55:28.066Z,4.10
2019-01-14T22:57:57.659Z,4.20
2019-01-14T23:00:58.493Z,4.30
2019-01-14T23:03:28.068Z,4.30
2019-01-14T23:05:57.877Z,4.30
2019-01-14T23:08:27.739Z,4.30
2019-01-14T23:10:57.548Z,4.40
2019-01-14T23:13:27.755Z,4.50
2019-01-14T23:15:58.247Z,4.50
2019-01-14T23:18:27.819Z,4.50
2019-01-14T23:20:57.720Z,4.60
2019-01-14T23:23:27.587Z,4.60
2019-01-14T23:25:57.159Z,4.50
2019-01-14T23:28:27.278Z,4.50
2019-01-14T23:30:57.224Z,4.30
2019-01-14T23:33:26.894Z,4.30
2019-01-14T23:35:56.543Z,4.60
2019-01-14T23:38:26.047Z,4.20
2019-01-14T23:40:55.626Z,4.20
2019-01-14T23:43:25.179Z,4.30
2019-01-14T23:45:55.047Z,4.30
2019-01-14T23:48:24.595Z,4.30
2019-01-14T23:50:54.953Z,4.20
2019-01-14T23:53:24.811Z,4.60
2019-01-14T23:55:54.383Z,4.60
2019-01-14T23:58:25.299Z,4.70
